createdAt,value
2023-03-15T00:00:24.127Z,1.44
2023-03-15T00:01:24.077Z,1.35
2023-03-15T00:02:24.131Z,1.42
2023-03-15T00:03:24.124Z,1.42
2023-03-15T00:04:24.067Z,1.45
2023-03-15T00:05:24.065Z,1.32
2023-03-15T00:06:24.261Z,1.45
2023-03-15T00:07:24.077Z,1.31
2023-03-15T00:08:24.052Z,1.28
2023-03-15T00:09:24.004Z,1.28
2023-03-15T00:10:24.013Z,1.23
2023-03-15T00:11:24.053Z,1.16
2023-03-15T00:12:24.091Z,1.19
2023-03-15T00:13:24.011Z,1.24
2023-03-15T00:14:24.035Z,1.30
2023-03-15T00:15:24.007Z,1.19
2023-03-15T00:16:24.242Z,1.16
2023-03-15T00:17:23.996Z,1.16
2023-03-15T00:18:23.965Z,1.08
2023-03-15T00:19:23.955Z,1.06
2023-03-15T00:20:23.972Z,1.04
2023-03-15T00:21:23.970Z,1.13
2023-03-15T00:22:23.946Z,0.99
2023-03-15T00:23:23.950Z,1.05
2023-03-15T00:24:25.168Z,1.12
2023-03-15T00:25:24.923Z,0.92
2023-03-15T00:26:23.894Z,0.98
2023-03-15T00:27:23.929Z,0.87
2023-03-15T00:28:23.908Z,0.81
2023-03-15T00:29:23.910Z,0.87
2023-03-15T00:30:23.834Z,0.94
2023-03-15T00:31:23.875Z,0.78
2023-03-15T00:32:23.910Z,0.84
2023-03-15T00:33:23.849Z,0.77
2023-03-15T00:34:23.930Z,0.86
2023-03-15T00:35:23.840Z,0.80
2023-03-15T00:36:23.856Z,0.78
2023-03-15T00:37:23.793Z,0.74
2023-03-15T00:38:23.779Z,0.68
2023-03-15T00:39:23.843Z,0.59
2023-03-15T00:40:23.800Z,0.63
2023-03-15T00:41:23.779Z,0.63
2023-03-15T00:42:23.768Z,0.60
2023-03-15T00:43:23.747Z,0.65
2023-03-15T00:44:23.829Z,0.58
2023-03-15T00:45:23.734Z,0.56
2023-03-15T00:46:23.813Z,0.52
2023-03-15T00:47:23.721Z,0.52
2023-03-15T00:48:23.733Z,0.56
2023-03-15T00:49:23.905Z,0.62
2023-03-15T00:50:23.673Z,0.52
2023-03-15T00:51:23.711Z,0.46
2023-03-15T00:52:23.695Z,0.55
2023-03-15T00:53:23.688Z,0.34
2023-03-15T00:54:23.675Z,0.43
2023-03-15T00:55:55.595Z,0.44
2023-03-15T00:56:23.645Z,0.44
2023-03-15T00:57:23.642Z,0.44
2023-03-15T00:58:25.304Z,0.43
2023-03-15T00:59:24.628Z,0.43
2023-03-15T01:00:23.604Z,0.41
2023-03-15T01:01:23.721Z,0.34
2023-03-15T01:02:23.585Z,0.44
2023-03-15T01:03:24.600Z,0.28
2023-03-15T01:04:23.612Z,0.25
2023-03-15T01:05:23.606Z,0.31
2023-03-15T01:06:23.583Z,0.25
2023-03-15T01:07:23.559Z,0.21
2023-03-15T01:08:23.546Z,0.18
2023-03-15T01:09:23.543Z,0.23
2023-03-15T01:10:23.577Z,0.16
2023-03-15T01:11:23.543Z,0.16
2023-03-15T01:12:23.522Z,0.07
2023-03-15T01:13:23.529Z,0.11
2023-03-15T01:14:23.525Z,0.07
2023-03-15T01:15:23.518Z,-0.02
2023-03-15T01:16:23.551Z,0.01
2023-03-15T01:17:23.487Z,0.03
2023-03-15T01:18:23.494Z,0.05
2023-03-15T01:19:23.943Z,-0.07
2023-03-15T01:20:23.439Z,0.07
2023-03-15T01:21:23.454Z,0.00
2023-03-15T01:22:23.481Z,-0.02
2023-03-15T01:23:23.478Z,-0.03
2023-03-15T01:24:23.466Z,-0.06
2023-03-15T01:25:23.442Z,-0.02
2023-03-15T01:26:23.479Z,-0.10
2023-03-15T01:27:23.389Z,-0.02
2023-03-15T01:28:23.408Z,-0.20
2023-03-15T01:29:23.436Z,-0.18
2023-03-15T01:30:23.370Z,-0.13
2023-03-15T01:31:23.451Z,-0.17
2023-03-15T01:32:23.471Z,-0.20
2023-03-15T01:33:23.395Z,-0.14
2023-03-15T01:34:23.350Z,-0.29
2023-03-15T01:35:23.362Z,-0.32
2023-03-15T01:36:23.320Z,-0.29
2023-03-15T01:37:23.325Z,-0.26
2023-03-15T01:38:23.362Z,-0.31
2023-03-15T01:39:23.310Z,-0.36
2023-03-15T01:40:23.292Z,-0.38
2023-03-15T01:41:23.309Z,-0.34
2023-03-15T01:42:23.291Z,-0.36
2023-03-15T01:43:23.318Z,-0.39
2023-03-15T01:44:23.288Z,-0.39
2023-03-15T01:45:23.266Z,-0.34
2023-03-15T01:46:23.326Z,-0.31
2023-03-15T01:47:23.238Z,-0.41
2023-03-15T01:48:23.235Z,-0.38
2023-03-15T01:49:23.233Z,-0.43
2023-03-15T01:50:23.205Z,-0.44
2023-03-15T01:51:23.269Z,-0.47
2023-03-15T01:52:23.254Z,-0.57
2023-03-15T01:53:23.230Z,-0.52
2023-03-15T01:54:23.209Z,-0.49
2023-03-15T01:55:23.229Z,-0.52
2023-03-15T01:56:23.177Z,-0.46
2023-03-15T01:57:23.187Z,-0.56
2023-03-15T01:58:23.159Z,-0.44
2023-03-15T01:59:23.160Z,-0.61
2023-03-15T02:00:23.146Z,-0.56
2023-03-15T02:01:23.122Z,-0.56
2023-03-15T02:02:23.263Z,-0.56
2023-03-15T02:03:23.136Z,-0.64
2023-03-15T02:04:23.137Z,-0.64
2023-03-15T02:05:23.112Z,-0.68
2023-03-15T02:06:23.108Z,-0.67
2023-03-15T02:07:23.102Z,-0.75
2023-03-15T02:08:23.071Z,-0.71
2023-03-15T02:09:23.130Z,-0.72
2023-03-15T02:10:23.094Z,-0.54
2023-03-15T02:11:23.059Z,-0.59
2023-03-15T02:12:23.062Z,-0.67
2023-03-15T02:13:23.084Z,-0.61
2023-03-15T02:14:23.073Z,-0.68
2023-03-15T02:15:23.042Z,-0.62
2023-03-15T02:16:23.185Z,-0.67
2023-03-15T02:17:23.030Z,-0.71
2023-03-15T02:18:23.052Z,-0.57
2023-03-15T02:19:23.038Z,-0.64
2023-03-15T02:20:23.005Z,-0.65
2023-03-15T02:21:23.157Z,-0.59
2023-03-15T02:22:22.973Z,-0.56
2023-03-15T02:23:23.003Z,-0.64
2023-03-15T02:24:22.993Z,-0.54
2023-03-15T02:25:22.994Z,-0.53
2023-03-15T02:26:23.005Z,-0.57
2023-03-15T02:27:22.949Z,-0.49
2023-03-15T02:28:22.946Z,-0.54
2023-03-15T02:29:22.968Z,-0.43
2023-03-15T02:30:22.911Z,-0.50
2023-03-15T02:31:23.004Z,-0.46
2023-03-15T02:32:22.967Z,-0.50
2023-03-15T02:33:22.916Z,-0.50
2023-03-15T02:34:22.890Z,-0.46
2023-03-15T02:35:23.912Z,-0.47
2023-03-15T02:36:22.905Z,-0.39
2023-03-15T02:37:22.909Z,-0.43
2023-03-15T02:38:22.901Z,-0.36
2023-03-15T02:39:22.849Z,-0.44
2023-03-15T02:40:22.865Z,-0.41
2023-03-15T02:41:22.877Z,-0.36
2023-03-15T02:42:22.875Z,-0.49
2023-03-15T02:43:22.832Z,-0.52
2023-03-15T02:44:22.865Z,-0.44
2023-03-15T02:45:22.813Z,-0.43
2023-03-15T02:46:22.905Z,-0.36
2023-03-15T02:47:22.844Z,-0.39
2023-03-15T02:48:22.810Z,-0.38
2023-03-15T02:49:22.791Z,-0.35
2023-03-15T02:50:22.788Z,-0.41
2023-03-15T02:51:22.755Z,-0.38
2023-03-15T02:52:22.802Z,-0.31
2023-03-15T02:53:22.760Z,-0.34
2023-03-15T02:54:22.745Z,-0.36
2023-03-15T02:55:22.752Z,-0.31
2023-03-15T02:56:22.733Z,-0.18
2023-03-15T02:57:22.746Z,-0.25
2023-03-15T02:58:22.730Z,-0.20
2023-03-15T02:59:22.725Z,-0.03
2023-03-15T03:00:22.711Z,-0.07
2023-03-15T03:01:22.828Z,-0.03
2023-03-15T03:02:22.748Z,-0.08
2023-03-15T03:03:22.745Z,-0.02
2023-03-15T03:04:22.690Z,-0.02
2023-03-15T03:05:22.693Z,0.03
2023-03-15T03:06:22.671Z,-0.02
2023-03-15T03:07:22.659Z,0.01
2023-03-15T03:08:22.731Z,-0.06
2023-03-15T03:09:23.589Z,-0.07
2023-03-15T03:10:22.650Z,-0.10
2023-03-15T03:11:22.619Z,-0.08
2023-03-15T03:12:22.623Z,-0.10
2023-03-15T03:13:22.646Z,-0.10
2023-03-15T03:14:22.612Z,-0.18
2023-03-15T03:15:22.672Z,-0.10
2023-03-15T03:16:22.654Z,-0.18
2023-03-15T03:17:22.589Z,-0.06
2023-03-15T03:18:22.599Z,-0.10
2023-03-15T03:19:22.631Z,-0.13
2023-03-15T03:20:22.607Z,-0.10
2023-03-15T03:21:22.552Z,-0.13
2023-03-15T03:22:22.543Z,-0.06
2023-03-15T03:23:22.557Z,-0.11
2023-03-15T03:24:22.611Z,-0.11
2023-03-15T03:25:22.521Z,0.00
2023-03-15T03:26:22.513Z,-0.06
2023-03-15T03:27:22.491Z,-0.02
2023-03-15T03:28:22.485Z,0.15
2023-03-15T03:29:22.515Z,0.05
2023-03-15T03:30:22.490Z,0.23
2023-03-15T03:31:23.436Z,0.26
2023-03-15T03:32:22.635Z,0.26
2023-03-15T03:33:22.453Z,0.26
2023-03-15T03:34:22.663Z,0.39
2023-03-15T03:35:22.463Z,0.26
2023-03-15T03:36:22.454Z,0.47
2023-03-15T03:37:22.429Z,0.50
2023-03-15T03:38:22.454Z,0.65
2023-03-15T03:39:22.418Z,0.56
2023-03-15T03:40:22.429Z,0.73
2023-03-15T03:41:22.425Z,0.91
2023-03-15T03:42:22.409Z,0.94
2023-03-15T03:43:22.407Z,1.08
2023-03-15T03:44:22.413Z,1.22
2023-03-15T03:45:22.383Z,1.22
2023-03-15T03:46:22.430Z,1.35
2023-03-15T04:02:37.980Z,1.60
2023-03-15T04:03:37.855Z,1.58
2023-03-15T04:04:37.856Z,1.67
2023-03-15T04:05:39.012Z,1.59
2023-03-15T04:06:38.976Z,1.67
2023-03-15T04:07:38.981Z,1.76
2023-03-15T04:08:38.998Z,1.70
2023-03-15T04:09:38.954Z,1.73
2023-03-15T04:10:38.962Z,1.73
2023-03-15T04:11:39.600Z,1.71
2023-03-15T04:12:39.020Z,1.67
2023-03-15T04:13:38.935Z,1.76
2023-03-15T04:14:38.933Z,1.71
2023-03-15T04:15:39.078Z,1.73
2023-03-15T04:16:38.900Z,1.80
2023-03-15T04:17:38.890Z,1.89
2023-03-15T04:18:39.588Z,1.80
2023-03-15T04:19:38.917Z,1.85
2023-03-15T04:20:38.878Z,1.89
2023-03-15T04:21:38.901Z,1.87
2023-03-15T04:22:38.925Z,1.92
2023-03-15T04:23:39.592Z,1.92
2023-03-15T04:24:38.846Z,1.91
2023-03-15T04:25:38.831Z,1.94
2023-03-15T04:26:38.818Z,1.97
2023-03-15T04:27:38.838Z,2.00
2023-03-15T04:28:38.817Z,1.91
2023-03-15T04:29:38.809Z,1.95
2023-03-15T04:30:38.790Z,2.00
2023-03-15T04:31:38.844Z,1.95
2023-03-15T04:32:38.827Z,2.02
2023-03-15T04:33:38.790Z,2.00
2023-03-15T04:34:38.830Z,2.02
2023-03-15T04:35:38.795Z,2.07
2023-03-15T04:36:38.771Z,2.06
2023-03-15T04:37:38.764Z,2.11
2023-03-15T04:38:38.868Z,2.20
2023-03-15T04:39:38.722Z,2.20
2023-03-15T04:40:38.723Z,2.07
2023-03-15T04:41:38.734Z,2.24
2023-03-15T04:42:38.727Z,2.18
2023-03-15T04:43:38.711Z,2.14
2023-03-15T04:44:38.752Z,2.13
2023-03-15T04:45:40.127Z,2.08
2023-03-15T04:46:38.743Z,2.20
2023-03-15T04:47:38.679Z,2.13
2023-03-15T04:48:38.665Z,2.07
2023-03-15T04:49:38.749Z,2.07
2023-03-15T04:50:38.637Z,2.07
2023-03-15T04:51:38.645Z,2.10
2023-03-15T04:52:38.669Z,2.20
2023-03-15T04:53:38.610Z,2.24
2023-03-15T04:54:38.668Z,2.11
2023-03-15T04:55:38.615Z,2.18
2023-03-15T04:56:38.677Z,2.20
2023-03-15T04:57:38.588Z,2.20
2023-03-15T04:58:38.624Z,2.22
2023-03-15T04:59:38.587Z,2.24
2023-03-15T05:00:38.620Z,2.29
2023-03-15T05:01:38.597Z,2.26
2023-03-15T05:02:38.578Z,2.29
2023-03-15T05:03:38.541Z,2.32
2023-03-15T05:04:38.539Z,2.36
2023-03-15T05:05:38.554Z,2.32
2023-03-15T05:06:38.546Z,2.33
2023-03-15T05:07:38.508Z,2.35
2023-03-15T05:08:38.509Z,2.17
2023-03-15T05:09:39.759Z,2.22
2023-03-15T05:10:39.615Z,2.26
2023-03-15T05:11:38.528Z,2.15
2023-03-15T05:12:39.800Z,2.06
2023-03-15T05:13:38.482Z,2.08
2023-03-15T05:14:38.459Z,2.07
2023-03-15T05:15:38.462Z,2.11
2023-03-15T05:16:38.541Z,2.08
2023-03-15T05:17:38.540Z,2.02
2023-03-15T05:18:38.481Z,1.91
2023-03-15T05:19:38.459Z,1.94
2023-03-15T05:20:38.412Z,1.94
2023-03-15T05:21:38.405Z,1.95
2023-03-15T05:22:38.428Z,1.89
2023-03-15T05:23:38.381Z,1.85
2023-03-15T05:24:38.382Z,1.74
2023-03-15T05:25:38.863Z,1.76
2023-03-15T05:26:39.399Z,1.73
2023-03-15T05:27:38.488Z,1.71
2023-03-15T05:28:38.349Z,1.70
2023-03-15T05:29:38.347Z,1.77
2023-03-15T05:30:38.351Z,1.71
2023-03-15T05:31:38.326Z,1.70
2023-03-15T05:32:38.387Z,1.68
2023-03-15T05:33:38.379Z,1.70
2023-03-15T05:34:38.328Z,1.71
2023-03-15T05:35:38.377Z,1.76
2023-03-15T05:36:38.295Z,1.71
2023-03-15T05:37:38.308Z,1.76
2023-03-15T05:38:38.388Z,1.71
2023-03-15T05:39:38.324Z,1.73
2023-03-15T05:40:38.280Z,1.70
2023-03-15T05:41:38.267Z,1.71
2023-03-15T05:42:38.279Z,1.66
2023-03-15T05:43:38.245Z,1.68
2023-03-15T05:44:38.256Z,1.66
2023-03-15T05:45:38.257Z,1.56
2023-03-15T05:46:39.181Z,1.58
2023-03-15T05:47:38.230Z,1.56
2023-03-15T05:48:38.226Z,1.67
2023-03-15T05:49:38.238Z,1.62
2023-03-15T05:50:38.181Z,1.58
2023-03-15T05:51:38.182Z,1.49
2023-03-15T05:52:38.321Z,1.58
2023-03-15T05:53:38.169Z,1.62
2023-03-15T05:54:38.212Z,1.53
2023-03-15T05:55:38.662Z,1.52
2023-03-15T05:56:38.152Z,1.55
2023-03-15T05:57:38.343Z,1.49
2023-03-15T05:58:38.139Z,1.59
2023-03-15T05:59:39.073Z,1.52
2023-03-15T06:00:38.150Z,1.44
2023-03-15T06:01:38.112Z,1.48
2023-03-15T06:02:38.155Z,1.53
2023-03-15T06:03:38.188Z,1.59
2023-03-15T06:04:38.098Z,1.58
2023-03-15T06:05:38.078Z,1.48
2023-03-15T06:06:38.065Z,1.52
2023-03-15T06:07:38.118Z,1.48
2023-03-15T06:08:38.085Z,1.48
2023-03-15T06:09:38.051Z,1.59
2023-03-15T06:10:38.112Z,1.60
2023-03-15T06:11:38.039Z,1.67
2023-03-15T06:12:38.032Z,1.66
2023-03-15T06:13:38.022Z,1.41
2023-03-15T06:14:38.008Z,1.49
2023-03-15T06:15:38.014Z,1.56
2023-03-15T06:16:38.073Z,1.60
2023-03-15T06:17:38.114Z,1.50
2023-03-15T06:18:38.005Z,1.53
2023-03-15T06:19:38.159Z,1.58
2023-03-15T06:20:39.053Z,1.55
2023-03-15T06:21:37.981Z,1.58
2023-03-15T06:22:37.947Z,1.52
2023-03-15T06:23:37.969Z,1.48
2023-03-15T06:24:37.957Z,1.42
2023-03-15T06:25:37.920Z,1.59
2023-03-15T06:26:37.929Z,1.63
2023-03-15T06:27:37.905Z,1.59
2023-03-15T06:28:37.905Z,1.49
2023-03-15T06:29:37.895Z,1.42
2023-03-15T06:30:37.955Z,1.45
2023-03-15T06:31:37.883Z,1.59
2023-03-15T06:32:37.870Z,1.52
2023-03-15T06:33:37.864Z,1.71
2023-03-15T06:34:37.868Z,1.58
2023-03-15T06:35:38.154Z,1.73
2023-03-15T06:36:37.851Z,1.62
2023-03-15T06:37:37.837Z,1.66
2023-03-15T06:38:37.846Z,1.62
2023-03-15T06:39:37.817Z,1.63
2023-03-15T06:40:37.811Z,1.66
2023-03-15T06:41:37.797Z,1.60
2023-03-15T06:42:37.785Z,1.76
2023-03-15T06:43:37.863Z,1.76
2023-03-15T06:44:38.677Z,1.77
2023-03-15T06:45:37.782Z,1.71
2023-03-15T06:46:37.783Z,1.73
2023-03-15T06:47:37.763Z,1.62
2023-03-15T06:48:37.776Z,1.74
2023-03-15T06:49:37.781Z,1.74
2023-03-15T06:50:46.788Z,1.77
2023-03-15T06:51:40.624Z,1.78
2023-03-15T06:52:37.737Z,1.91
2023-03-15T06:53:37.710Z,1.70
2023-03-15T06:54:37.714Z,1.76
2023-03-15T06:55:37.707Z,1.77
2023-03-15T06:56:37.686Z,1.85
2023-03-15T06:57:37.699Z,1.84
2023-03-15T06:58:37.682Z,1.88
2023-03-15T06:59:37.680Z,1.78
2023-03-15T07:00:37.665Z,1.84
2023-03-15T07:01:37.686Z,1.85
2023-03-15T07:02:37.710Z,1.85
2023-03-15T07:03:37.678Z,1.76
2023-03-15T07:04:37.637Z,1.87
2023-03-15T07:05:37.628Z,1.88
2023-03-15T07:06:37.632Z,1.85
2023-03-15T07:07:37.600Z,1.80
2023-03-15T07:08:37.629Z,1.85
2023-03-15T07:09:37.584Z,1.84
2023-03-15T07:10:37.627Z,1.87
2023-03-15T07:11:37.595Z,1.88
2023-03-15T07:12:37.608Z,1.84
2023-03-15T07:13:37.599Z,1.85
2023-03-15T07:14:38.113Z,1.85
2023-03-15T07:15:37.629Z,1.94
2023-03-15T07:16:37.533Z,1.91
2023-03-15T07:17:37.541Z,1.84
2023-03-15T07:18:37.519Z,1.97
2023-03-15T07:19:46.851Z,1.89
2023-03-15T07:20:39.531Z,1.88
2023-03-15T07:21:37.514Z,1.89
2023-03-15T07:22:37.512Z,1.91
2023-03-15T07:23:37.495Z,1.92
2023-03-15T07:24:37.512Z,1.95
2023-03-15T07:25:48.604Z,1.95
2023-03-15T07:26:39.497Z,2.02
2023-03-15T07:27:37.474Z,1.91
2023-03-15T07:28:37.442Z,1.91
2023-03-15T07:29:37.448Z,1.97
2023-03-15T07:30:37.451Z,1.95
2023-03-15T07:31:37.930Z,1.95
2023-03-15T07:32:37.582Z,2.08
2023-03-15T07:33:37.428Z,1.97
2023-03-15T07:34:37.422Z,2.10
2023-03-15T07:35:37.476Z,2.10
2023-03-15T07:36:37.431Z,2.13
2023-03-15T07:37:38.476Z,2.14
2023-03-15T07:38:37.545Z,2.08
2023-03-15T07:39:37.373Z,2.10
2023-03-15T07:40:37.377Z,2.14
2023-03-15T07:41:37.369Z,2.13
2023-03-15T07:42:37.356Z,2.24
2023-03-15T07:43:37.479Z,2.20
2023-03-15T07:44:37.375Z,2.22
2023-03-15T07:45:37.418Z,2.14
2023-03-15T07:46:37.413Z,2.17
2023-03-15T07:47:37.354Z,2.20
2023-03-15T07:48:37.348Z,2.28
2023-03-15T07:49:37.313Z,2.20
2023-03-15T07:50:37.303Z,2.20
2023-03-15T07:51:37.356Z,2.10
2023-03-15T07:52:37.468Z,2.18
2023-03-15T07:53:37.316Z,2.20
2023-03-15T07:54:37.287Z,2.29
2023-03-15T07:55:37.261Z,2.26
2023-03-15T07:56:37.259Z,2.31
2023-03-15T07:57:37.331Z,2.29
2023-03-15T07:58:37.236Z,2.28
2023-03-15T07:59:37.251Z,2.32
2023-03-15T08:00:37.263Z,2.32
2023-03-15T08:01:37.264Z,2.50
2023-03-15T08:02:37.306Z,2.53
2023-03-15T08:03:37.205Z,2.36
2023-03-15T08:04:37.238Z,2.50
2023-03-15T08:05:37.242Z,2.57
2023-03-15T08:06:37.269Z,2.61
2023-03-15T08:07:37.160Z,2.65
2023-03-15T08:08:37.196Z,2.75
2023-03-15T08:09:37.133Z,2.71
2023-03-15T08:10:37.172Z,2.82
2023-03-15T08:11:37.150Z,2.85
2023-03-15T08:12:37.129Z,2.83
2023-03-15T08:13:37.152Z,2.89
2023-03-15T08:14:38.170Z,2.89
2023-03-15T08:15:37.127Z,2.87
2023-03-15T08:16:37.164Z,2.90
2023-03-15T08:17:37.114Z,3.00
2023-03-15T08:18:37.080Z,3.05
2023-03-15T08:19:37.076Z,3.00
2023-03-15T08:20:38.072Z,3.21
2023-03-15T08:21:37.049Z,3.11
2023-03-15T08:22:38.436Z,3.25
2023-03-15T08:23:38.024Z,3.16
2023-03-15T08:24:37.015Z,3.16
2023-03-15T08:25:39.056Z,3.23
2023-03-15T08:26:37.053Z,3.25
2023-03-15T08:27:37.038Z,3.23
2023-03-15T08:28:37.012Z,3.21
2023-03-15T08:29:37.015Z,3.26
2023-03-15T08:30:36.997Z,3.28
2023-03-15T08:31:37.195Z,3.29
2023-03-15T08:32:37.013Z,3.36
2023-03-15T08:33:37.008Z,3.41
2023-03-15T08:34:36.982Z,3.42
2023-03-15T08:35:37.075Z,3.42
2023-03-15T08:36:36.988Z,3.59
2023-03-15T08:37:36.965Z,3.59
2023-03-15T08:38:36.933Z,3.65
2023-03-15T08:39:37.008Z,3.73
2023-03-15T08:40:38.854Z,3.70
2023-03-15T08:41:36.942Z,3.66
2023-03-15T08:42:36.908Z,3.68
2023-03-15T08:43:36.863Z,3.59
2023-03-15T08:44:36.936Z,3.48
2023-03-15T08:45:56.889Z,3.48
2023-03-15T08:46:38.948Z,3.69
2023-03-15T08:47:36.970Z,3.77
2023-03-15T08:48:36.849Z,3.62
2023-03-15T08:49:36.822Z,3.78
2023-03-15T08:50:36.853Z,3.87
2023-03-15T08:51:36.837Z,3.94
2023-03-15T08:52:36.892Z,3.87
2023-03-15T08:53:36.800Z,3.84
2023-03-15T08:54:36.803Z,3.86
2023-03-15T08:55:36.776Z,3.87
2023-03-15T08:56:36.780Z,3.73
2023-03-15T08:57:36.761Z,3.59
2023-03-15T08:58:36.765Z,3.59
2023-03-15T08:59:36.803Z,3.56
2023-03-15T09:00:36.747Z,3.59
2023-03-15T09:01:36.845Z,3.58
2023-03-15T09:02:36.811Z,3.65
2023-03-15T09:03:36.721Z,3.59
2023-03-15T09:04:38.528Z,3.62
2023-03-15T09:05:36.729Z,3.58
2023-03-15T09:06:36.712Z,3.65
2023-03-15T09:07:36.719Z,3.73
2023-03-15T09:08:36.714Z,3.69
2023-03-15T09:09:36.731Z,3.63
2023-03-15T09:10:36.671Z,3.69
2023-03-15T09:11:36.660Z,3.77
2023-03-15T09:12:36.667Z,3.77
2023-03-15T09:13:37.665Z,3.65
2023-03-15T09:14:36.730Z,3.81
2023-03-15T09:15:36.718Z,3.88
2023-03-15T09:16:36.744Z,3.92
2023-03-15T09:17:36.665Z,4.04
2023-03-15T09:18:36.618Z,4.10
2023-03-15T09:19:36.693Z,4.12
2023-03-15T09:20:37.741Z,4.22
2023-03-15T09:21:36.634Z,4.19
2023-03-15T09:22:39.291Z,4.14
2023-03-15T09:23:37.556Z,4.20
2023-03-15T09:24:36.549Z,4.22
2023-03-15T09:25:36.590Z,4.31
2023-03-15T09:26:36.527Z,4.20
2023-03-15T09:27:36.539Z,4.19
2023-03-15T09:28:36.548Z,4.26
2023-03-15T09:29:36.513Z,4.23
2023-03-15T09:30:36.586Z,4.14
2023-03-15T09:31:36.557Z,4.24
2023-03-15T09:32:36.738Z,4.34
2023-03-15T09:33:36.536Z,4.44
2023-03-15T09:34:41.808Z,4.44
2023-03-15T09:35:38.572Z,4.45
2023-03-15T09:36:36.557Z,4.48
2023-03-15T09:37:36.468Z,4.52
2023-03-15T09:38:36.468Z,4.37
2023-03-15T09:39:36.494Z,4.24
2023-03-15T09:40:36.472Z,4.28
2023-03-15T09:41:36.444Z,4.35
2023-03-15T09:42:36.443Z,4.44
2023-03-15T09:43:36.425Z,4.48
2023-03-15T09:44:36.410Z,4.55
2023-03-15T09:45:36.527Z,4.68
2023-03-15T09:46:36.439Z,4.56
2023-03-15T09:47:36.388Z,4.55
2023-03-15T09:48:36.393Z,4.52
2023-03-15T09:49:36.370Z,4.44
2023-03-15T09:50:36.395Z,4.45
2023-03-15T09:51:36.432Z,4.59
2023-03-15T09:52:36.352Z,4.56
2023-03-15T09:53:36.353Z,4.68
2023-03-15T09:54:36.425Z,4.77
2023-03-15T09:55:36.321Z,4.75
2023-03-15T09:56:36.496Z,4.87
2023-03-15T09:57:36.338Z,5.00
2023-03-15T09:58:36.301Z,4.93
2023-03-15T09:59:36.300Z,4.99
2023-03-15T10:00:36.313Z,4.92
2023-03-15T10:01:37.243Z,4.82
2023-03-15T10:02:36.719Z,4.87
2023-03-15T10:03:36.306Z,5.04
2023-03-15T10:04:36.284Z,4.87
2023-03-15T10:05:36.274Z,5.00
2023-03-15T10:06:37.863Z,5.05
2023-03-15T10:07:37.298Z,5.18
2023-03-15T10:08:36.214Z,5.28
2023-03-15T10:09:36.225Z,5.36
2023-03-15T10:10:37.154Z,5.30
2023-03-15T10:11:36.246Z,5.44
2023-03-15T10:12:36.213Z,5.53
2023-03-15T10:13:36.210Z,5.69
2023-03-15T10:14:36.201Z,5.66
2023-03-15T10:15:36.157Z,5.87
2023-03-15T10:16:36.176Z,5.97
2023-03-15T10:17:36.180Z,5.98
2023-03-15T10:18:36.138Z,6.14
2023-03-15T10:19:36.328Z,6.09
2023-03-15T10:20:36.197Z,6.07
2023-03-15T10:21:36.155Z,6.01
2023-03-15T10:22:36.116Z,6.22
2023-03-15T10:23:36.105Z,6.27
2023-03-15T10:24:36.114Z,6.59
2023-03-15T10:25:36.185Z,6.85
2023-03-15T10:26:36.086Z,6.88
2023-03-15T10:27:36.091Z,6.95
2023-03-15T10:28:37.169Z,6.95
2023-03-15T10:29:37.095Z,6.95
2023-03-15T10:30:36.144Z,7.00
2023-03-15T10:31:44.203Z,6.87
2023-03-15T10:32:38.062Z,6.45
2023-03-15T10:33:36.072Z,6.45
2023-03-15T10:34:36.039Z,6.48
2023-03-15T10:35:36.081Z,6.48
2023-03-15T10:36:36.948Z,6.54
2023-03-15T10:37:35.991Z,6.42
2023-03-15T10:38:36.081Z,6.19
2023-03-15T10:39:35.977Z,6.09
2023-03-15T10:40:36.008Z,6.12
2023-03-15T10:41:35.978Z,6.08
2023-03-15T10:42:35.993Z,6.17
2023-03-15T10:43:36.664Z,6.48
2023-03-15T10:44:35.913Z,6.39
2023-03-15T10:45:35.935Z,6.30
2023-03-15T10:46:35.956Z,6.36
2023-03-15T10:47:35.938Z,6.30
2023-03-15T10:48:35.934Z,6.12
2023-03-15T10:49:35.884Z,6.17
2023-03-15T10:50:35.963Z,6.22
2023-03-15T10:51:35.919Z,6.27
2023-03-15T10:52:36.895Z,6.31
2023-03-15T10:53:36.950Z,6.41
2023-03-15T10:54:35.868Z,6.51
2023-03-15T10:55:35.867Z,6.35
2023-03-15T10:56:35.873Z,6.36
2023-03-15T10:57:35.871Z,6.41
2023-03-15T10:58:35.823Z,6.36
2023-03-15T10:59:35.853Z,6.30
2023-03-15T11:00:35.829Z,6.04
2023-03-15T11:01:35.873Z,5.98
2023-03-15T11:02:35.847Z,5.98
2023-03-15T11:03:36.452Z,5.93
2023-03-15T11:04:35.773Z,5.86
2023-03-15T11:05:35.786Z,5.68
2023-03-15T11:06:35.781Z,5.68
2023-03-15T11:07:35.795Z,5.80
2023-03-15T11:08:35.757Z,5.87
2023-03-15T11:09:35.801Z,5.83
2023-03-15T11:10:35.723Z,5.99
2023-03-15T11:11:35.784Z,6.09
2023-03-15T11:12:35.796Z,6.17
2023-03-15T11:14:08.642Z,6.38
2023-03-15T11:14:35.703Z,6.45
2023-03-15T11:15:35.707Z,6.62
2023-03-15T11:16:35.767Z,6.67
2023-03-15T11:17:36.651Z,7.07
2023-03-15T11:18:36.713Z,7.40
2023-03-15T11:19:35.679Z,7.50
2023-03-15T11:20:35.668Z,7.47
2023-03-15T11:21:35.660Z,7.87
2023-03-15T11:22:36.712Z,8.30
2023-03-15T11:23:36.511Z,8.66
2023-03-15T11:24:35.662Z,8.48
2023-03-15T11:25:35.631Z,8.45
2023-03-15T11:26:35.635Z,8.27
2023-03-15T11:27:35.608Z,8.06
2023-03-15T11:28:35.649Z,7.67
2023-03-15T11:29:35.614Z,7.73
2023-03-15T11:30:35.633Z,7.73
2023-03-15T11:31:35.740Z,7.75
2023-03-15T11:32:35.636Z,7.57
2023-03-15T11:33:35.579Z,7.42
2023-03-15T11:34:35.544Z,7.51
2023-03-15T11:35:35.665Z,7.69
2023-03-15T11:36:35.549Z,7.85
2023-03-15T11:37:35.593Z,8.18
2023-03-15T11:38:35.524Z,8.38
2023-03-15T11:39:36.164Z,8.64
2023-03-15T11:40:36.687Z,8.73
2023-03-15T11:41:35.526Z,8.71
2023-03-15T11:42:35.492Z,8.84
2023-03-15T11:43:36.193Z,9.08
2023-03-15T11:44:35.481Z,9.11
2023-03-15T11:45:36.257Z,9.18
2023-03-15T11:46:35.500Z,8.88
2023-03-15T11:47:36.182Z,8.94
2023-03-15T11:48:35.444Z,9.03
2023-03-15T11:49:35.474Z,8.95
2023-03-15T11:50:35.517Z,8.94
2023-03-15T11:51:35.439Z,9.16
2023-03-15T11:52:35.496Z,9.36
2023-03-15T11:53:35.502Z,9.32
2023-03-15T11:54:35.425Z,9.11
2023-03-15T11:55:35.395Z,9.03
2023-03-15T11:56:35.389Z,8.69
2023-03-15T11:57:35.376Z,8.69
2023-03-15T11:58:36.099Z,8.37
2023-03-15T11:59:35.395Z,8.18
2023-03-15T12:00:35.371Z,8.20
2023-03-15T12:01:35.402Z,8.20
2023-03-15T12:02:36.217Z,7.87
2023-03-15T12:03:35.368Z,7.47
2023-03-15T12:04:35.350Z,7.56
2023-03-15T12:05:35.323Z,7.73
2023-03-15T12:06:35.365Z,7.63
2023-03-15T12:07:35.310Z,7.63
2023-03-15T12:08:35.318Z,7.61
2023-03-15T12:09:35.336Z,7.38
2023-03-15T12:10:35.322Z,7.43
2023-03-15T12:11:35.380Z,7.75
2023-03-15T12:12:35.292Z,7.93
2023-03-15T12:13:36.230Z,8.15
2023-03-15T12:14:35.252Z,8.19
2023-03-15T12:15:35.282Z,8.26
2023-03-15T12:16:35.269Z,8.13
2023-03-15T12:17:37.439Z,8.45
2023-03-15T12:18:36.208Z,8.31
2023-03-15T12:19:35.201Z,8.10
2023-03-15T12:20:35.226Z,7.76
2023-03-15T12:21:35.162Z,7.72
2023-03-15T12:22:35.206Z,7.61
2023-03-15T12:23:35.142Z,7.45
2023-03-15T12:24:35.143Z,7.40
2023-03-15T12:25:39.461Z,7.45
2023-03-15T12:26:37.163Z,7.29
2023-03-15T12:27:35.122Z,7.23
2023-03-15T12:28:35.125Z,7.17
2023-03-15T12:29:35.146Z,7.23
2023-03-15T12:30:35.172Z,7.21
2023-03-15T12:31:35.115Z,7.31
2023-03-15T12:32:35.122Z,7.32
2023-03-15T12:33:35.092Z,7.33
2023-03-15T12:34:35.069Z,7.48
2023-03-15T12:35:35.072Z,7.32
2023-03-15T12:36:35.090Z,7.32
2023-03-15T12:37:35.072Z,7.21
2023-03-15T12:38:35.060Z,7.69
2023-03-15T12:39:35.054Z,8.06
2023-03-15T12:40:35.023Z,8.51
2023-03-15T12:41:35.008Z,8.81
2023-03-15T12:42:35.009Z,8.71
2023-03-15T12:43:35.005Z,8.51
2023-03-15T12:44:35.102Z,8.19
2023-03-15T12:45:37.295Z,8.13
2023-03-15T12:46:34.980Z,8.05
2023-03-15T12:47:35.112Z,8.01
2023-03-15T12:48:34.962Z,8.20
2023-03-15T12:49:35.034Z,8.28
2023-03-15T12:50:35.073Z,8.23
2023-03-15T12:51:34.935Z,8.20
2023-03-15T12:52:34.931Z,8.13
2023-03-15T12:53:34.929Z,7.63
2023-03-15T12:54:34.902Z,7.80
2023-03-15T12:55:34.948Z,7.91
2023-03-15T12:56:35.098Z,8.06
2023-03-15T12:57:34.995Z,8.20
2023-03-15T12:58:34.902Z,8.45
2023-03-15T12:59:34.898Z,8.78
2023-03-15T13:00:34.868Z,9.10
2023-03-15T13:01:34.976Z,9.39
2023-03-15T13:02:44.056Z,9.65
2023-03-15T13:03:36.935Z,9.83
2023-03-15T13:04:34.862Z,9.95
2023-03-15T13:05:34.815Z,10.04
2023-03-15T13:06:34.837Z,9.99
2023-03-15T13:07:45.622Z,10.02
2023-03-15T13:08:36.801Z,9.97
2023-03-15T13:09:34.805Z,10.01
2023-03-15T13:10:34.809Z,10.22
2023-03-15T13:11:34.809Z,10.16
2023-03-15T13:12:34.857Z,10.26
2023-03-15T13:13:35.529Z,10.37
2023-03-15T13:14:35.573Z,10.38
2023-03-15T13:15:34.833Z,10.41
2023-03-15T13:16:35.215Z,10.30
2023-03-15T13:17:34.724Z,10.37
2023-03-15T13:18:34.713Z,10.46
2023-03-15T13:19:34.711Z,10.59
2023-03-15T13:20:34.711Z,10.75
2023-03-15T13:21:34.738Z,10.76
2023-03-15T13:22:37.409Z,10.57
2023-03-15T13:23:35.710Z,10.41
2023-03-15T13:24:34.740Z,10.35
2023-03-15T13:25:34.671Z,10.26
2023-03-15T13:26:34.712Z,10.28
2023-03-15T13:27:34.691Z,10.35
2023-03-15T13:28:34.683Z,10.53